Terminal Aerodrome Forecast
Issued by NWS

Home | Current Version | Previous Version | Text Only | Print | Product List | Glossary On
Versions: 1 2 3 4 5 6 7 8 9 10 11 12 13 14 15
000
FTUS46 KHNX 202320
TAFVIS
TAF
KVIS 202320Z 2100/2124 35006KT P6SM BKN050 BKN100
     FM210300 34006KT P6SM -RA OVC050
      TEMPO 2103/2107 3SM RA BR BKN030
     FM211000 34006KT P6SM VCSH SCT030 BKN050
     FM211400 32007KT P6SM BKN030
     FM211900 32007KT P6SM SCT035 BKN050=

USA.gov is the U.S. government's official web portal to all federal, state and local government web resources and services.